Flight Track Log - Related Links

Times and Time Zones

All times are in EDT time to prevent confusion due to time zone crossing. See the CTL67 flight status page for this flight to view local times or setup timezone preferences in your user account.

Time Position Orientation Groundspeed Altitude Reporting Facility
EDT Latitude Longitude Course Direction KTS MPH feet Rate Location/Type
Wed 02:14:40 AM 33.5900 -86.7122 56° Northeast 146 168 2,100  Level Atlanta Center
Wed 02:15:41 AM 33.6158 -86.6731 52° Northeast 156 180 3,100 984 Climbing Atlanta Center
Wed 02:16:42 AM 33.6397 -86.6314 55° Northeast 153 176 4,100 1,041 Climbing Atlanta Center
Wed 02:17:42 AM 33.6678 -86.5847 54° Northeast 151 174 5,200 942 Climbing Atlanta Center
Wed 02:18:43 AM 33.6894 -86.5503 53° Northeast 139 160 6,000 793 Climbing Atlanta Center
Wed 02:19:43 AM 33.7131 -86.5161 50° Northeast 137 158 6,800 682 Climbing Atlanta Center
Wed 02:20:55 AM 33.7411 -86.4669 56° Northeast 151 174 7,500 591 Climbing Atlanta Center
Wed 02:21:55 AM 33.7647 -86.4278 54° Northeast 146 168 8,100 550 Climbing Atlanta Center
Wed 02:22:55 AM 33.7803 -86.3806 68° East 141 162 8,600 450 Climbing Atlanta Center
Wed 02:23:55 AM 33.7958 -86.3361 67° East 141 162 9,000 200 Climbing Atlanta Center
Wed 02:24:55 AM 33.8156 -86.2817 66° East 148 170 9,000 50 Level Atlanta Center
Wed 02:25:55 AM 33.8333 -86.2294 68° East 160 184 9,100  Climbing Atlanta Center
Wed 02:26:55 AM 33.8550 -86.1775 63° Northeast 170 196 9,000  Descending Atlanta Center
Wed 02:27:55 AM 33.8725 -86.1281 67° East 170 196 9,100 50 Climbing Atlanta Center
Wed 02:28:55 AM 33.8944 -86.0758 63° Northeast 170 196 9,100  Level Atlanta Center
Wed 02:29:55 AM 33.9097 -86.0236 71° East 170 196 9,100 -50 Level Atlanta Center
Wed 02:30:55 AM 33.9336 -85.9667 63° Northeast 170 196 9,000  Descending Atlanta Center
Wed 02:31:55 AM 33.9533 -85.9144 66° East 170 196 9,100 50 Climbing Atlanta Center
Wed 02:32:55 AM 33.9686 -85.8622 71° East 170 196 9,100  Level Atlanta Center
Wed 02:33:55 AM 33.9861 -85.8075 69° East 170 196 9,100 -50 Level Atlanta Center
Wed 02:34:55 AM 34.0119 -85.7556 59° Northeast 176 203 9,000 -50 Descending Atlanta Center
Wed 02:35:55 AM 34.0314 -85.7058 65° Northeast 176 203 9,000  Level Atlanta Center
Wed 02:36:55 AM 34.0467 -85.6533 71° East 171 197 9,000  Level Atlanta Center
Wed 02:37:55 AM 34.0642 -85.5986 69° East 171 197 9,000 50 Level Atlanta Center
Wed 02:38:55 AM 34.0814 -85.5461 68° East 166 191 9,100 50 Climbing Atlanta Center
Wed 02:39:55 AM 34.1031 -85.4939 63° Northeast 171 197 9,100 -50 Level Atlanta Center
Wed 02:40:55 AM 34.1222 -85.4414 66° East 171 197 9,000  Descending Atlanta Center
Wed 02:41:55 AM 34.1417 -85.3817 69° East 171 197 9,100 50 Climbing Atlanta Center
Wed 02:42:55 AM 34.1611 -85.3292 66° East 170 196 9,100 -50 Level Atlanta Center
Wed 02:43:55 AM 34.1806 -85.2742 67° East 170 196 9,000  Descending Atlanta Center
Wed 02:44:55 AM 34.1997 -85.2242 65° Northeast 170 196 9,100 50 Climbing Atlanta Center
Wed 02:45:55 AM 34.2192 -85.1667 68° East 170 196 9,100 -50 Level Atlanta Center
Wed 02:46:55 AM 34.2383 -85.1167 65° Northeast 170 196 9,000 -50 Descending Atlanta Center
Wed 02:47:55 AM 34.2575 -85.0592 68° East 170 196 9,000  Level Atlanta Center
Wed 02:48:55 AM 34.2767 -85.0067 66° East 170 196 9,000  Level Atlanta Center
Wed 02:49:55 AM 34.2917 -84.9617 68° East 170 196 9,000  Level Atlanta Center
Wed 02:50:55 AM 34.3108 -84.9064 67° East 170 196 9,000  Level Atlanta Center
Wed 02:51:55 AM 34.3300 -84.8514 67° East 170 196 9,000  Level Atlanta Center
Wed 02:52:55 AM 34.3492 -84.7961 67° East 170 196 9,000  Level Atlanta Center
Wed 02:53:55 AM 34.3661 -84.7433 69° East 170 196 9,000  Level Atlanta Center
Wed 02:54:55 AM 34.3875 -84.6908 64° Northeast 170 196 9,000  Level Atlanta Center
Wed 02:55:55 AM 34.4064 -84.6306 69° East 170 196 9,000  Level Atlanta Center
Wed 02:56:55 AM 34.4256 -84.5778 66° East 170 196 9,000  Level Atlanta Center
Wed 02:57:55 AM 34.4425 -84.5225 70° East 170 196 9,000  Level Atlanta Center
Wed 02:58:55 AM 34.4614 -84.4697 67° East 170 196 9,000 50 Level Atlanta Center
Wed 02:59:55 AM 34.4803 -84.4142 68° East 170 196 9,100  Climbing Atlanta Center
Wed 03:00:55 AM 34.5014 -84.3589 65° Northeast 170 196 9,000 -50 Descending Atlanta Center
Wed 03:01:55 AM 34.5181 -84.3086 68° East 170 196 9,000  Level Atlanta Center
Wed 03:02:55 AM 34.5369 -84.2556 67° East 170 196 9,000 50 Level Atlanta Center
Wed 03:03:55 AM 34.5517 -84.2053 70° East 170 196 9,100  Climbing Atlanta Center
Wed 03:04:55 AM 34.5728 -84.1522 64° Northeast 170 196 9,000 -50 Descending Atlanta Center
Wed 03:05:55 AM 34.5894 -84.0994 69° East 170 196 9,000  Level Atlanta Center
Wed 03:06:55 AM 34.6083 -84.0464 67° East 170 196 9,000  Level Atlanta Center
Wed 03:07:55 AM 34.6250 -83.9933 69° East 164 189 9,000 50 Level Atlanta Center
Wed 03:08:55 AM 34.6436 -83.9353 69° East 172 198 9,100  Climbing Atlanta Center
Wed 03:09:55 AM 34.6625 -83.8772 68° East 172 198 9,000 -50 Descending Atlanta Center
Wed 03:10:55 AM 34.6811 -83.8217 68° East 172 198 9,000  Level Atlanta Center
Wed 03:11:55 AM 34.6997 -83.7683 67° East 172 198 9,000  Level Atlanta Center
Wed 03:12:55 AM 34.7206 -83.7153 64° Northeast 172 198 9,000  Level Atlanta Center
Wed 03:13:55 AM 34.7392 -83.6647 66° East 166 191 9,000  Level Atlanta Center
Wed 03:14:55 AM 34.7536 -83.6039 74° East 166 191 9,000  Level Atlanta Center
Wed 03:15:55 AM 34.7700 -83.5558 67° East 166 191 9,000  Level Atlanta Center
Wed 03:16:55 AM 34.7864 -83.5000 70° East 171 197 9,000  Level Atlanta Center
Wed 03:17:55 AM 34.8050 -83.4469 67° East 171 197 9,000  Level Atlanta Center
Wed 03:18:55 AM 34.8256 -83.3936 65° Northeast 164 189 9,000  Level Atlanta Center
Wed 03:19:55 AM 34.8442 -83.3378 68° East 174 200 9,000  Level Atlanta Center
Wed 03:20:55 AM 34.8647 -83.2742 68° East 174 200 9,000  Level Atlanta Center
Wed 03:21:55 AM 34.8808 -83.2233 69° East 174 200 9,000  Level Atlanta Center
Wed 03:22:55 AM 34.8994 -83.1675 68° East 176 203 9,000 -50 Level Atlanta Center
Wed 03:23:55 AM 34.9178 -83.1117 68° East 171 197 8,900  Descending Atlanta Center
Wed 03:24:55 AM 34.9361 -83.0558 68° East 171 197 9,000 50 Climbing Atlanta Center
Wed 03:25:55 AM 34.9544 -83.0022 67° East 171 197 9,000  Level Atlanta Center
Wed 03:26:55 AM 34.9747 -82.9436 67° East 171 197 9,000  Level Atlanta Center
Wed 03:27:55 AM 34.9911 -82.8903 69° East 171 197 9,000  Level Atlanta Center
Wed 03:28:55 AM 35.0114 -82.8317 67° East 171 197 9,000  Level Atlanta Center
Wed 03:29:55 AM 35.0275 -82.7756 71° East 171 197 9,000 50 Level Atlanta Center
Wed 03:30:55 AM 35.0456 -82.7194 69° East 171 197 9,100 50 Climbing Atlanta Center
Wed 03:31:55 AM 35.0658 -82.6608 67° East 176 203 9,100 -50 Level Atlanta Center
Wed 03:32:55 AM 35.0839 -82.6047 69° East 170 196 9,000 -1,000 Descending Atlanta Center
Wed 03:33:55 AM 35.1022 -82.5639 61° Northeast 162 186 7,100 -500 Descending Atlanta Center
Wed 03:34:55 AM 35.1222 -82.4847 73° East 180 207 8,000 200 Climbing Atlanta Center
Wed 03:35:55 AM 35.1444 -82.4258 65° Northeast 192 221 7,500 -450 Descending Atlanta Center
Wed 03:36:55 AM 35.1622 -82.3619 71° East 192 221 7,100 -250 Descending Atlanta Center
Wed 03:37:55 AM 35.1822 -82.3006 68° East 187 215 7,000  Descending Atlanta Center
Wed 03:38:55 AM 35.2003 -82.2544 64° Northeast 175 201 7,100 50 Climbing Atlanta Center
Wed 03:39:55 AM 35.2183 -82.1981 69° East 169 194 7,100  Level Atlanta Center
Wed 03:40:55 AM 35.2383 -82.1392 67° East 169 194 7,100  Level Atlanta Center
Wed 03:41:55 AM 35.2583 -82.0828 67° East 169 194 7,100  Level Atlanta Center
Wed 03:42:22 AM 35.2642 -82.0597 73° East 172 198 7,100  Level Atlanta Center
Wed 03:42:55 AM 35.2742 -82.0289 68° East 169 194 7,100  Level Atlanta Center
Wed 03:43:29 AM 35.2819 -82.0033 70° East 175 201 7,100 100 Level Atlanta Center
Wed 03:43:55 AM 35.2942 -81.9725 64° Northeast 174 200 7,200 100 Climbing Atlanta Center
Wed 03:44:29 AM 35.2997 -81.9469 75° East 177 204 7,200 -100 Level Atlanta Center
Wed 03:44:55 AM 35.3119 -81.9186 62° Northeast 168 193 7,100  Descending Atlanta Center
Wed 03:45:30 AM 35.3197 -81.8931 70° East 175 201 7,200 -100 Climbing Atlanta Center
Wed 03:45:55 AM 35.3297 -81.8622 68° East 168 193 7,000 -98 Descending Atlanta Center
Wed 03:46:31 AM 35.3375 -81.8339 71° East 180 207 7,100 100 Climbing Atlanta Center
Wed 03:46:55 AM 35.3475 -81.8031 68° East 173 199 7,100  Level Atlanta Center
Wed 03:47:31 AM 35.3572 -81.7775 65° Northeast 181 208 7,100  Level Atlanta Center
Wed 03:47:55 AM 35.3650 -81.7467 73° East 173 199 7,100  Level Atlanta Center
Wed 03:48:32 AM 35.3731 -81.7183 71° East 181 208 7,100 -100 Level Atlanta Center
Wed 03:48:55 AM 35.3850 -81.6900 63° Northeast 173 199 7,000 100 Descending Atlanta Center
Wed 03:49:32 AM 35.3928 -81.6592 73° East 181 208 7,200 100 Climbing Atlanta Center
Wed 03:49:55 AM 35.4006 -81.6311 71° East 173 199 7,100  Descending Atlanta Center
Wed 03:50:33 AM 35.4103 -81.6000 69° East 183 211 7,200 -100 Climbing Atlanta Center
Wed 03:50:55 AM 35.4161 -81.5822 68° East 173 199 7,000  Descending Atlanta Center
Wed 03:51:34 AM 35.4281 -81.5461 68° East 177 204 7,200  Climbing Atlanta Center
Wed 03:51:55 AM 35.4358 -81.5256 65° Northeast 173 199 7,000 -100 Descending Atlanta Center
Wed 03:52:34 AM 35.4456 -81.4869 73° East 179 206 7,100 120 Climbing Atlanta Center
Wed 03:53:35 AM 35.4631 -81.4278 70° East 180 207 7,200  Climbing Atlanta Center
Wed 03:54:35 AM 35.4806 -81.3711 69° East 180 207 7,100 -50 Descending Atlanta Center
Wed 03:55:36 AM 35.4961 -81.3119 72° East 182 209 7,100  Level Atlanta Center
Wed 03:56:37 AM 35.5156 -81.2550 67° East 181 208 7,100  Level Atlanta Center
Wed 03:57:37 AM 35.5331 -81.1983 69° East 182 209 7,100  Level Atlanta Center
Wed 03:58:38 AM 35.5525 -81.1417 67° East 182 209 7,100  Level Atlanta Center
Wed 03:59:38 AM 35.5681 -81.0847 71° East 182 209 7,100  Level Atlanta Center
Wed 04:00:39 AM 35.5911 -81.0125 69° East 181 208 7,100  Level Atlanta Center
Wed 04:01:40 AM 35.6064 -80.9558 72° East 181 208 7,100  Level Atlanta Center
Wed 04:02:40 AM 35.6258 -80.8989 67° East 182 209 7,100  Level Atlanta Center
Wed 04:03:41 AM 35.6431 -80.8394 70° East 185 213 7,100  Level Atlanta Center
Wed 04:04:41 AM 35.6625 -80.7797 68° East 184 212 7,100  Level Atlanta Center
Wed 04:05:42 AM 35.6775 -80.7178 73° East 183 211 7,100  Level Atlanta Center
Wed 04:07:00 AM 35.6959 -80.6460 72° East  Level FlightAware Approximate
Wed 04:14:00 AM 35.8036 -80.2625 70° East  Level FlightAware Approximate
Wed 04:15:00 AM 35.8196 -80.2080 70° East  Level FlightAware Approximate
Wed 04:16:00 AM 35.8356 -80.1535 70° East  Level FlightAware Approximate
Wed 04:17:00 AM 35.8516 -80.0989 70° East  Level FlightAware Approximate
Wed 04:18:00 AM 35.8676 -80.0444 70° East  Level FlightAware Approximate
Wed 04:19:00 AM 35.8835 -79.9898 70° East  Level FlightAware Approximate
Wed 04:20:00 AM 35.8995 -79.9351 70° East  Level FlightAware Approximate
Wed 04:21:00 AM 35.9158 -79.8807 70° East  Level FlightAware Approximate
Wed 04:22:00 AM 35.9322 -79.8262 70° East  Level FlightAware Approximate
Wed 04:23:00 AM 35.9485 -79.7718 70° East  Level FlightAware Approximate
Wed 04:24:00 AM 35.9634 -79.7167 72° East  Level FlightAware Approximate
Wed 04:25:00 AM 35.9781 -79.6615 72° East  Level FlightAware Approximate
Wed 04:26:00 AM 35.9929 -79.6063 72° East  Level FlightAware Approximate
Wed 04:27:00 AM 36.0075 -79.5510 72° East  Level FlightAware Approximate
Wed 04:28:00 AM 36.0234 -79.4964 68° East  Level FlightAware Approximate
Wed 04:29:00 AM 36.0333 -79.4667 68° East  Level FlightAware Approximate
Wed 04:30:00 AM 36.0485 -79.4749 68° East  Level Estimated
Wed 04:31:00 AM 36.0485 -79.4749 68° East  Level Estimated
Wed 04:32:00 AM 36.0485 -79.4749 68° East  Level Estimated
Wed 04:33:00 AM 36.0485 -79.4749 68° East  Level Estimated
Wed 04:34:00 AM 36.0485 -79.4749 68° East  Level Estimated
Wed 04:35:00 AM 36.0485 -79.4749 68° East  Level Estimated

Login

Don't have an account? Register now (free) for customized features, flight alerts, and more!